Time;durP1;ratioP1;P1;durP2;ratioP2;P2;SDS_P1;SDS_P2;PMS_P1;PMS_P2;Temp;Humidity;BMP_temperature;BMP_pressure;BME280_temperature;BME280_humidity;BME280_pressure;Samples;Min_cycle;Max_cycle;Signal;HPM_P1;HPM_P2
2022/10/06 00:02:09;;;;;;;5.40;4.30;;;;;;;13.63;65.49;100771.75;4973079;28;20202;-72
2022/10/06 00:04:37;;;;;;;8.13;4.87;;;;;;;13.60;65.57;100772.94;4973047;28;20261;-74
2022/10/06 00:07:04;;;;;;;6.63;4.70;;;;;;;13.48;66.15;100763.75;4973061;28;20706;-73
2022/10/06 00:09:31;;;;;;;6.33;4.77;;;;;;;13.31;67.22;100761.47;4973591;28;20227;-75
2022/10/06 00:11:57;;;;;;;5.07;4.67;;;;;;;13.31;66.30;100761.47;4976709;28;20265;-75
2022/10/06 00:14:24;;;;;;;4.63;4.20;;;;;;;13.30;66.60;100757.09;4977730;28;20198;-75
2022/10/06 00:16:51;;;;;;;8.07;4.30;;;;;;;13.25;66.96;100756.84;4976985;28;20196;-75
2022/10/06 00:19:18;;;;;;;9.00;4.27;;;;;;;13.18;67.76;100762.06;4976987;28;20246;-74
2022/10/06 00:21:46;;;;;;;4.83;4.43;;;;;;;13.15;67.10;100757.09;4977190;28;20199;-73
2022/10/06 00:24:12;;;;;;;4.80;4.30;;;;;;;13.11;67.58;100746.97;4977250;28;20195;-72
2022/10/06 00:26:39;;;;;;;4.33;3.93;;;;;;;13.07;67.55;100754.50;4976962;28;20742;-72
2022/10/06 00:29:06;;;;;;;7.97;3.83;;;;;;;12.97;68.12;100745.94;4976978;28;20218;-72
2022/10/06 00:31:33;;;;;;;4.23;3.83;;;;;;;12.90;68.48;100746.81;4976639;28;20663;-73
2022/10/06 00:34:00;;;;;;;4.53;4.23;;;;;;;12.88;68.37;100744.31;4976700;28;20211;-74
2022/10/06 00:36:27;;;;;;;5.10;4.07;;;;;;;12.86;68.21;100746.31;4976620;28;20250;-74
2022/10/06 00:38:55;;;;;;;5.10;3.97;;;;;;;12.85;68.09;100738.50;4976860;28;20203;-73
2022/10/06 00:41:22;;;;;;;4.47;4.03;;;;;;;12.88;68.33;100743.47;4976712;28;20202;-73
2022/10/06 00:43:51;;;;;;;5.63;3.83;;;;;;;12.89;68.16;100751.31;4976265;28;20698;-74
2022/10/06 00:46:24;;;;;;;3.83;3.57;;;;;;;12.85;68.62;100750.00;4976260;28;20199;-73
2022/10/06 00:48:55;;;;;;;4.37;3.80;;;;;;;12.82;69.33;100750.34;4976661;28;20184;-73
2022/10/06 00:51:23;;;;;;;4.40;3.30;;;;;;;12.80;69.04;100744.41;4976585;28;20250;-72
2022/10/06 00:53:50;;;;;;;4.03;3.73;;;;;;;12.72;69.09;100744.47;4976658;28;20301;-72
2022/10/06 00:56:18;;;;;;;4.20;3.80;;;;;;;12.67;69.31;100749.50;4976277;28;20196;-73
2022/10/06 00:58:45;;;;;;;3.77;3.47;;;;;;;12.65;69.41;100743.50;4976649;28;20199;-72
2022/10/06 01:01:12;;;;;;;3.93;3.53;;;;;;;12.60;69.45;100735.22;4975886;28;20254;-72
2022/10/06 01:03:43;;;;;;;3.93;3.53;;;;;;;12.63;69.61;100740.22;4976465;28;20269;-72
2022/10/06 01:06:10;;;;;;;6.27;4.00;;;;;;;12.57;69.64;100742.75;4976053;28;20188;-73
2022/10/06 01:08:38;;;;;;;4.63;4.10;;;;;;;12.50;69.37;100737.28;4992029;28;20269;-76
2022/10/06 01:11:04;;;;;;;4.40;3.90;;;;;;;12.41;69.88;100749.00;4995528;28;20276;-72
2022/10/06 01:13:33;;;;;;;6.87;3.60;;;;;;;12.23;69.92;100739.66;4995401;28;20199;-73
2022/10/06 01:16:03;;;;;;;4.07;3.70;;;;;;;12.17;70.54;100738.50;4995101;28;20261;-73
2022/10/06 01:18:32;;;;;;;4.07;3.77;;;;;;;11.98;70.98;100738.97;4995416;28;20578;-73
2022/10/06 01:21:06;;;;;;;4.60;3.90;;;;;;;11.97;71.24;100747.13;4995658;28;20201;-73
2022/10/06 01:23:36;;;;;;;4.77;4.33;;;;;;;11.99;71.49;100745.94;4994930;28;20217;-73
2022/10/06 01:26:07;;;;;;;5.07;4.10;;;;;;;12.02;71.32;100748.28;4982515;28;20195;-74
2022/10/06 01:28:34;;;;;;;4.73;4.23;;;;;;;11.98;71.48;100738.97;4975732;28;20650;-73
2022/10/06 01:31:03;;;;;;;3.83;3.53;;;;;;;12.00;71.77;100742.28;4975779;28;20230;-72
2022/10/06 01:33:30;;;;;;;4.07;3.73;;;;;;;12.00;71.60;100739.63;4975546;28;20725;-72
2022/10/06 01:35:57;;;;;;;5.20;3.43;;;;;;;12.04;71.61;100738.25;4975430;28;20262;-72
2022/10/06 01:38:24;;;;;;;5.53;3.80;;;;;;;12.06;71.27;100746.06;4975608;28;20262;-72
2022/10/06 01:40:53;;;;;;;3.60;3.40;;;;;;;12.05;71.73;100739.09;4975433;28;20750;-72
2022/10/06 01:43:20;;;;;;;4.53;3.60;;;;;;;11.99;72.16;100745.13;4976476;28;20251;-72
2022/10/06 01:45:53;;;;;;;4.13;3.87;;;;;;;12.00;71.95;100742.28;4975256;28;20198;-74
2022/10/06 01:48:20;;;;;;;7.23;3.60;;;;;;;12.04;71.68;100732.94;4975857;28;20277;-72
2022/10/06 01:50:47;;;;;;;4.20;3.90;;;;;;;12.06;71.41;100741.59;4975726;28;20654;-74
2022/10/06 01:53:13;;;;;;;4.57;3.53;;;;;;;12.07;71.11;100745.91;4976008;28;20234;-74
2022/10/06 01:55:40;;;;;;;4.30;3.90;;;;;;;12.11;71.30;100744.56;4975876;28;20613;-73
2022/10/06 01:58:09;;;;;;;3.60;3.33;;;;;;;12.11;71.34;100733.06;4974991;28;20285;-72
2022/10/06 02:00:35;;;;;;;7.17;4.10;;;;;;;12.09;71.52;100735.91;4977064;28;20640;-73
2022/10/06 02:03:02;;;;;;;4.37;3.97;;;;;;;12.06;71.26;100740.75;4994365;28;20201;-72
2022/10/06 02:05:29;;;;;;;12.13;4.13;;;;;;;12.02;71.65;100734.97;4994368;28;20259;-74
2022/10/06 02:07:56;;;;;;;10.93;4.07;;;;;;;11.94;71.99;100734.16;4994352;28;20251;-74
2022/10/06 02:10:22;;;;;;;5.87;3.53;;;;;;;11.92;72.18;100722.88;4994242;28;20712;-74
2022/10/06 02:12:50;;;;;;;3.83;3.40;;;;;;;11.93;71.95;100730.69;4994289;28;20200;-75
2022/10/06 02:15:19;;;;;;;7.93;4.40;;;;;;;11.92;72.17;100726.34;4994404;28;20662;-74
2022/10/06 02:17:46;;;;;;;5.73;3.43;;;;;;;11.87;71.92;100731.38;4994478;28;20677;-74
2022/10/06 02:20:13;;;;;;;6.07;3.90;;;;;;;11.78;72.78;100720.94;4994339;28;20204;-74
2022/10/06 02:22:42;;;;;;;9.03;4.03;;;;;;;11.79;72.62;100730.56;4994673;28;20206;-75
2022/10/06 02:25:09;;;;;;;3.70;3.40;;;;;;;11.77;72.45;100729.91;4989120;28;20205;-73
2022/10/06 02:27:36;;;;;;;3.80;3.50;;;;;;;11.75;72.54;100738.06;4974623;28;20194;-73
2022/10/06 02:30:04;;;;;;;3.90;3.50;;;;;;;11.76;72.89;100730.94;4974892;28;20311;-74
2022/10/06 02:32:34;;;;;;;5.37;3.60;;;;;;;11.76;72.62;100731.75;4974530;28;20198;-74
2022/10/06 02:35:02;;;;;;;5.70;3.40;;;;;;;11.77;72.74;100740.56;4973576;28;20201;-75
2022/10/06 02:37:29;;;;;;;5.00;3.63;;;;;;;11.75;72.89;100738.06;4974162;28;20202;-75
2022/10/06 02:39:56;;;;;;;4.43;4.03;;;;;;;11.70;72.64;100740.44;4975747;28;20258;-74
2022/10/06 02:42:23;;;;;;;6.07;4.23;;;;;;;11.62;73.33;100743.13;4974616;28;20203;-74
2022/10/06 02:44:51;;;;;;;6.73;3.83;;;;;;;11.56;73.60;100738.44;4974214;28;20201;-74
2022/10/06 02:47:18;;;;;;;4.07;3.77;;;;;;;11.52;73.54;100737.16;4974319;28;20208;-74
2022/10/06 02:49:46;;;;;;;4.20;3.90;;;;;;;11.49;73.69;100734.00;4973935;28;20222;-74
2022/10/06 02:52:14;;;;;;;7.57;3.47;;;;;;;11.49;74.07;100737.50;4972798;28;20198;-74
2022/10/06 02:54:41;;;;;;;5.47;4.20;;;;;;;11.43;74.43;100743.47;4974204;28;20574;-74
2022/10/06 02:57:07;;;;;;;4.23;3.93;;;;;;;11.46;74.48;100742.31;4974537;28;20198;-73
2022/10/06 02:59:35;;;;;;;6.87;3.90;;;;;;;11.48;74.10;100741.16;4974129;28;20633;-72
2022/10/06 03:02:02;;;;;;;12.37;4.67;;;;;;;11.47;74.08;100738.66;4973770;28;20198;-72
2022/10/06 03:04:28;;;;;;;8.43;3.60;;;;;;;11.44;75.10;100739.00;4974338;28;20233;-73
2022/10/06 03:06:57;;;;;;;5.80;3.90;;;;;;;11.46;74.82;100740.50;4973730;28;20670;-72
2022/10/06 03:09:24;;;;;;;8.20;4.10;;;;;;;11.49;74.34;100742.81;4973914;28;20252;-73
2022/10/06 03:11:50;;;;;;;6.47;3.80;;;;;;;11.41;74.46;100734.00;4974137;28;20205;-72
2022/10/06 03:14:17;;;;;;;4.70;3.87;;;;;;;11.44;74.57;100737.19;4973990;28;20200;-72
2022/10/06 03:16:44;;;;;;;6.77;4.00;;;;;;;11.40;74.87;100738.53;4973725;28;20197;-72
2022/10/06 03:19:11;;;;;;;8.17;4.30;;;;;;;11.38;74.94;100740.50;4973708;28;20669;-72
2022/10/06 03:21:40;;;;;;;3.90;3.70;;;;;;;11.27;75.67;100732.06;4973496;28;20229;-74
2022/10/06 03:24:09;;;;;;;6.10;3.70;;;;;;;11.24;75.70;100733.25;4974103;28;20193;-74
2022/10/06 03:26:37;;;;;;;5.20;3.83;;;;;;;11.28;75.30;100729.25;4973871;28;20248;-74
2022/10/06 03:29:05;;;;;;;5.23;3.37;;;;;;;11.30;75.38;100732.56;4973498;28;20229;-74
2022/10/06 03:31:31;;;;;;;7.23;3.80;;;;;;;11.26;75.69;100736.56;4973513;28;20669;-73
2022/10/06 03:33:58;;;;;;;3.97;3.57;;;;;;;11.26;75.47;100736.56;4973551;28;20194;-74
2022/10/06 03:36:28;;;;;;;6.73;4.23;;;;;;;11.21;75.90;100722.94;4973444;28;20206;-74
2022/10/06 03:38:55;;;;;;;5.70;3.80;;;;;;;11.21;75.65;100733.56;4973773;28;20252;-74
2022/10/06 03:41:25;;;;;;;5.13;4.27;;;;;;;11.25;75.78;100723.41;4982839;28;20224;-73
2022/10/06 03:43:53;;;;;;;6.80;3.83;;;;;;;11.21;75.66;100722.94;4981602;28;20193;-73
2022/10/06 03:46:22;;;;;;;4.43;4.13;;;;;;;11.17;75.45;100718.13;4979589;28;20582;-73
2022/10/06 03:48:50;;;;;;;5.80;4.20;;;;;;;11.13;76.86;100720.28;4989849;28;20254;-72
2022/10/06 03:51:20;;;;;;;6.27;3.90;;;;;;;11.14;76.15;100731.78;4992580;28;20645;-72
2022/10/06 03:53:48;;;;;;;6.43;4.17;;;;;;;11.10;76.10;100733.91;4978731;28;20230;-73
2022/10/06 03:56:17;;;;;;;4.80;4.30;;;;;;;11.06;76.39;100734.44;4981045;28;20195;-73
2022/10/06 03:58:47;;;;;;;6.10;4.47;;;;;;;11.20;77.77;100726.59;4989229;28;20200;-73
2022/10/06 04:01:15;;;;;;;5.27;4.53;;;;;;;11.42;75.74;100728.53;4991623;28;20288;-73
2022/10/06 04:03:42;;;;;;;3.80;3.43;;;;;;;11.60;75.06;100729.16;4992038;28;20196;-73
2022/10/06 04:06:12;;;;;;;7.23;3.63;;;;;;;11.86;73.91;100729.72;4992698;28;20249;-73
2022/10/06 04:08:40;;;;;;;19.70;4.50;;;;;;;11.98;73.63;100733.66;4992738;28;20279;-72
2022/10/06 04:11:09;;;;;;;4.20;3.80;;;;;;;12.12;72.81;100735.56;4992476;28;20632;-73
2022/10/06 04:13:36;;;;;;;4.07;3.70;;;;;;;12.24;71.89;100726.16;4992681;28;20205;-73
2022/10/06 04:16:12;;;;;;;10.73;4.53;;;;;;;12.23;71.14;100721.84;4992168;28;20209;-73
2022/10/06 04:18:40;;;;;;;10.47;3.70;;;;;;;12.37;71.20;100723.72;4992996;28;20194;-73
2022/10/06 04:21:08;;;;;;;8.53;4.00;;;;;;;12.46;70.82;100733.31;4992534;28;20225;-73
2022/10/06 04:23:35;;;;;;;9.67;4.07;;;;;;;12.45;70.28;100731.66;4992379;28;20202;-73
2022/10/06 04:26:05;;;;;;;5.20;4.40;;;;;;;12.50;70.31;100731.94;4979869;28;20202;-74
2022/10/06 04:28:32;;;;;;;6.43;4.17;;;;;;;12.49;71.30;100730.31;4973317;28;20306;-74
2022/10/06 04:30:59;;;;;;;11.47;3.87;;;;;;;12.53;69.68;100728.94;4972848;28;20204;-74
2022/10/06 04:33:30;;;;;;;9.10;4.33;;;;;;;12.57;69.23;100727.56;4972904;28;20204;-74
2022/10/06 04:35:58;;;;;;;7.33;3.70;;;;;;;12.65;69.28;100732.84;4973174;28;20665;-74
2022/10/06 04:38:26;;;;;;;13.23;4.13;;;;;;;12.70;68.73;100730.47;4973396;28;20278;-74
2022/10/06 04:40:52;;;;;;;7.73;3.90;;;;;;;12.71;68.94;100721.47;4973760;28;20223;-74
2022/10/06 04:43:19;;;;;;;7.90;4.13;;;;;;;12.76;68.24;100728.91;4972586;28;20239;-73
2022/10/06 04:45:46;;;;;;;12.17;4.33;;;;;;;12.72;67.96;100723.13;4972633;28;20675;-74
2022/10/06 04:48:13;;;;;;;15.10;3.80;;;;;;;12.69;67.92;100728.81;4972454;28;20198;-74
2022/10/06 04:50:41;;;;;;;6.73;3.57;;;;;;;12.74;68.08;100736.28;4972872;28;20203;-73
2022/10/06 04:53:08;;;;;;;11.40;4.00;;;;;;;12.99;68.59;100730.56;4972864;28;20227;-74
2022/10/06 04:55:35;;;;;;;3.40;3.00;;;;;;;13.33;68.34;100724.72;4972384;28;20624;-74
2022/10/06 04:58:02;;;;;;;14.00;4.63;;;;;;;13.74;65.95;100725.91;4974906;28;20197;-73
2022/10/06 05:00:28;;;;;;;5.07;3.67;;;;;;;14.07;64.25;100727.97;4976176;28;20285;-73
2022/10/06 05:02:55;;;;;;;5.70;5.20;;;;;;;14.28;62.82;100740.53;4976536;28;20254;-73
2022/10/06 05:05:22;;;;;;;5.60;4.07;;;;;;;14.56;62.09;100736.09;4975797;28;20242;-74
2022/10/06 05:07:50;;;;;;;14.17;3.53;;;;;;;14.85;60.61;100738.63;4975814;28;20738;-73
2022/10/06 05:10:17;;;;;;;18.40;4.13;;;;;;;15.02;60.33;100740.84;4975557;28;20730;-74
2022/10/06 05:12:44;;;;;;;9.20;4.03;;;;;;;15.20;59.28;100733.13;4975726;28;20200;-73
2022/10/06 05:15:11;;;;;;;10.53;4.10;;;;;;;15.48;59.03;100757.25;4975733;28;20195;-73
2022/10/06 05:17:38;;;;;;;6.10;3.40;;;;;;;15.81;58.34;100751.03;4975915;28;20199;-73
2022/10/06 05:20:05;;;;;;;9.07;2.90;;;;;;;16.87;56.78;100753.00;4975663;28;20647;-74
2022/10/06 05:22:32;;;;;;;5.43;2.83;;;;;;;17.70;54.38;100758.50;4975396;28;20644;-74
2022/10/06 05:25:00;;;;;;;12.50;2.73;;;;;;;18.46;50.11;100771.06;4975646;28;20250;-74
2022/10/06 05:27:27;;;;;;;3.73;3.10;;;;;;;18.79;46.33;100777.06;4976421;28;20263;-68
2022/10/06 05:29:54;;;;;;;4.73;2.53;;;;;;;19.40;48.97;100776.13;4975784;28;20669;-69
2022/10/06 05:32:20;;;;;;;5.10;3.20;;;;;;;19.80;44.34;100787.34;4975913;28;20264;-71
2022/10/06 05:34:47;;;;;;;5.17;2.70;;;;;;;19.54;43.40;100777.69;4975614;28;20202;-68
2022/10/06 05:37:14;;;;;;;10.73;3.00;;;;;;;19.48;44.11;100777.75;4975363;28;20733;-68
2022/10/06 05:39:40;;;;;;;5.30;3.07;;;;;;;19.09;44.19;100769.97;4975298;28;20197;-68
2022/10/06 05:42:08;;;;;;;5.60;2.90;;;;;;;18.96;44.79;100783.53;4975844;28;20219;-68
2022/10/06 05:44:35;;;;;;;6.90;3.20;;;;;;;18.28;46.19;100787.03;4974801;28;20660;-75
2022/10/06 05:47:02;;;;;;;2.87;2.63;;;;;;;17.88;47.32;100783.69;4975458;28;20253;-73
2022/10/06 05:49:29;;;;;;;8.67;3.60;;;;;;;17.15;50.92;100769.75;4975667;28;20277;-72
2022/10/06 05:51:55;;;;;;;3.10;2.80;;;;;;;16.92;51.17;100755.91;4975652;28;20208;-73
2022/10/06 05:54:22;;;;;;;3.47;3.23;;;;;;;16.97;51.64;100767.66;4974848;28;20231;-72
2022/10/06 05:56:49;;;;;;;3.47;3.00;;;;;;;16.98;51.21;100779.25;4975542;28;20195;-74
2022/10/06 05:59:17;;;;;;;4.13;3.53;;;;;;;16.87;52.05;100777.16;4974931;28;20203;-75
2022/10/06 06:01:45;;;;;;;7.27;3.50;;;;;;;16.76;51.45;100775.06;4975323;28;20218;-75
2022/10/06 06:04:13;;;;;;;6.07;3.73;;;;;;;16.68;52.40;100777.97;4974889;28;20246;-78
2022/10/06 06:06:41;;;;;;;4.87;4.23;;;;;;;16.42;52.40;100783.28;4975340;28;20200;-74
2022/10/06 06:09:10;;;;;;;5.00;4.07;;;;;;;16.43;53.34;100776.88;4974121;28;20559;-75
2022/10/06 06:11:39;;;;;;;8.43;4.33;;;;;;;16.61;53.18;100777.13;4975329;28;20199;-74
2022/10/06 06:14:07;;;;;;;7.63;4.00;;;;;;;17.11;55.37;100779.25;4974765;28;20625;-72
2022/10/06 06:16:35;;;;;;;4.83;4.40;;;;;;;17.84;49.64;100792.41;4974879;28;20332;-74
2022/10/06 06:19:02;;;;;;;7.57;4.50;;;;;;;18.32;48.88;100799.00;4975503;28;20214;-78
2022/10/06 06:21:29;;;;;;;10.33;5.23;;;;;;;18.40;47.57;100788.88;4974689;28;20230;-75
2022/10/06 06:23:56;;;;;;;16.43;5.50;;;;;;;18.84;46.79;100801.44;4974856;28;20199;-76
2022/10/06 06:26:25;;;;;;;7.50;5.37;;;;;;;19.26;45.14;100800.72;4974951;28;20200;-75
2022/10/06 06:28:53;;;;;;;7.43;4.50;;;;;;;19.59;44.99;100810.16;4974587;28;20269;-76
2022/10/06 06:31:22;;;;;;;4.70;4.30;;;;;;;19.97;43.64;100804.59;4975144;28;20199;-76
2022/10/06 06:33:52;;;;;;;12.50;4.60;;;;;;;20.28;42.17;100809.84;4974815;28;20191;-80
2022/10/06 06:36:20;;;;;;;5.93;4.53;;;;;;;20.91;40.66;100808.38;4974647;28;20195;-72
2022/10/06 06:38:50;;;;;;;8.20;4.23;;;;;;;21.12;39.84;100804.28;4974738;28;20253;-73
2022/10/06 06:41:18;;;;;;;15.30;4.47;;;;;;;21.49;39.19;100806.56;4974322;28;20211;-73
2022/10/06 06:43:46;;;;;;;5.03;3.80;;;;;;;21.59;38.75;100812.19;4976628;28;20199;-73
2022/10/06 06:46:14;;;;;;;6.50;4.20;;;;;;;21.36;38.37;100800.56;4984625;28;20204;-73
2022/10/06 06:48:41;;;;;;;8.93;3.37;;;;;;;20.74;40.49;100796.53;4986008;28;20666;-73
2022/10/06 06:51:10;;;;;;;2.90;2.70;;;;;;;20.62;39.67;100794.84;4993548;28;20261;-75
2022/10/06 06:53:37;;;;;;;5.60;2.80;;;;;;;20.34;40.82;100787.34;4992869;28;20227;-65
2022/10/06 06:56:05;;;;;;;5.27;2.97;;;;;;;20.45;41.63;100775.75;4992873;28;20257;-65
2022/10/06 06:58:32;;;;;;;5.00;2.90;;;;;;;21.14;40.10;100786.78;4988226;28;20760;-65
2022/10/06 07:01:12;;;;;;;5.47;2.93;;;;;;;21.21;39.24;100782.09;4985438;28;20222;-65
2022/10/06 07:03:40;;;;;;;7.47;3.30;;;;;;;21.77;37.75;100786.94;4981292;28;20190;-65
2022/10/06 07:06:10;;;;;;;27.83;6.77;;;;;;;22.14;37.69;100788.28;4974934;28;20256;-65
2022/10/06 07:08:41;;;;;;;6.23;4.03;;;;;;;22.40;36.19;100783.13;4981911;28;20195;-65
2022/10/06 07:11:13;;;;;;;12.30;3.30;;;;;;;22.33;36.28;100776.22;4992740;28;20198;-65
2022/10/06 07:13:41;;;;;;;7.23;3.20;;;;;;;22.56;36.57;100768.84;4993012;28;20577;-65
2022/10/06 07:27:08;;;;;;;6.97;3.03;;;;;;;23.66;34.68;100756.28;4954893;29;20272;-64
2022/10/06 07:29:35;;;;;;;3.20;2.57;;;;;;;23.95;33.65;100757.78;4965274;28;20232;-63
2022/10/06 07:32:02;;;;;;;11.10;2.93;;;;;;;24.12;33.48;100764.81;4978446;28;20266;-62
2022/10/06 07:34:29;;;;;;;5.30;2.97;;;;;;;24.25;32.83;100758.97;4983754;28;20192;-64
2022/10/06 07:36:58;;;;;;;12.13;3.20;;;;;;;24.20;33.36;100742.63;4983838;28;20205;-62
2022/10/06 07:39:25;;;;;;;3.57;2.70;;;;;;;24.35;33.10;100750.13;4981145;28;20192;-67
2022/10/06 07:41:52;;;;;;;6.33;2.73;;;;;;;23.81;33.81;100754.59;4982804;28;20703;-65
2022/10/06 07:44:19;;;;;;;6.40;3.10;;;;;;;23.22;34.70;100738.28;4982189;28;20189;-65
2022/10/06 07:46:45;;;;;;;6.70;2.60;;;;;;;23.50;34.07;100741.69;4983407;28;20759;-64
2022/10/06 07:49:13;;;;;;;4.73;2.50;;;;;;;23.41;34.01;100737.78;4982497;28;20201;-65
2022/10/06 07:51:41;;;;;;;5.97;2.37;;;;;;;23.71;34.21;100738.19;4980955;28;20287;-66
2022/10/06 07:54:09;;;;;;;3.73;2.60;;;;;;;24.19;33.12;100740.16;4981398;28;20312;-67
2022/10/06 07:56:36;;;;;;;3.20;2.57;;;;;;;24.34;32.38;100733.00;4981827;28;20335;-67
2022/10/06 07:59:03;;;;;;;10.77;2.30;;;;;;;24.52;33.36;100724.50;4986596;28;20279;-67
2022/10/06 08:01:30;;;;;;;5.57;2.43;;;;;;;24.70;31.72;100720.59;4986183;28;20773;-67
2022/10/06 08:03:57;;;;;;;4.83;2.20;;;;;;;24.85;31.59;100707.97;4983179;28;20245;-66
2022/10/06 08:06:23;;;;;;;4.00;2.47;;;;;;;25.04;30.94;100702.97;4983832;28;20618;-66
2022/10/06 08:08:51;;;;;;;6.37;2.33;;;;;;;24.72;31.58;100703.00;4992380;28;20202;-67
2022/10/06 08:11:20;;;;;;;4.00;1.77;;;;;;;24.85;31.38;100707.97;4991250;28;20198;-67
2022/10/06 08:13:47;;;;;;;3.33;2.20;;;;;;;24.42;31.57;100702.66;4990991;28;20248;-67
2022/10/06 08:16:16;;;;;;;4.93;2.37;;;;;;;23.86;32.48;100703.09;4992136;28;20197;-67
2022/10/06 08:18:44;;;;;;;7.90;3.07;;;;;;;24.06;32.33;100700.63;4991547;28;20676;-67
2022/10/06 08:21:13;;;;;;;4.23;2.50;;;;;;;24.07;32.51;100704.19;4992505;28;20193;-67
2022/10/06 08:23:41;;;;;;;4.47;2.20;;;;;;;24.19;32.19;100688.56;4992664;28;20289;-67
2022/10/06 08:26:09;;;;;;;7.20;2.33;;;;;;;24.32;32.60;100694.41;4978788;28;20670;-66
2022/10/06 08:28:38;;;;;;;8.83;3.33;;;;;;;24.38;32.18;100690.66;4973158;28;20202;-67
2022/10/06 08:31:06;;;;;;;4.90;2.63;;;;;;;24.43;32.23;100688.00;4979699;28;20264;-67
2022/10/06 08:33:34;;;;;;;2.20;2.00;;;;;;;24.34;32.14;100689.53;4976701;28;20210;-67
2022/10/06 08:36:07;;;;;;;2.43;1.97;;;;;;;24.58;32.28;100703.59;4976852;28;20289;-67
2022/10/06 08:38:34;;;;;;;9.90;2.43;;;;;;;24.83;32.08;100699.25;4978416;28;20195;-67
2022/10/06 08:41:01;;;;;;;4.43;2.27;;;;;;;25.00;31.36;100699.13;4976820;28;20257;-67
2022/10/06 08:43:30;;;;;;;2.27;2.07;;;;;;;24.79;30.63;100700.84;4976434;28;20579;-66
2022/10/06 08:46:01;;;;;;;3.07;2.00;;;;;;;25.05;31.24;100696.44;4976668;28;20261;-67
2022/10/06 08:48:37;;;;;;;10.90;1.97;;;;;;;25.39;30.71;100697.75;4977532;28;20191;-66
2022/10/06 08:51:18;;;;;;;2.63;2.40;;;;;;;25.49;29.42;100702.44;4976362;28;20197;-67
2022/10/06 08:53:58;;;;;;;2.63;2.43;;;;;;;25.65;29.89;100696.00;4976449;28;20258;-68
2022/10/06 08:56:28;;;;;;;2.77;2.30;;;;;;;25.85;29.35;100698.81;4976498;28;20242;-66
2022/10/06 08:58:58;;;;;;;5.07;2.20;;;;;;;25.66;29.92;100689.47;4975941;28;20652;-68
2022/10/06 09:01:32;;;;;;;5.77;1.83;;;;;;;25.80;30.74;100686.00;4983445;28;20721;-69
2022/10/06 09:04:01;;;;;;;2.77;2.20;;;;;;;25.74;29.47;100686.25;4995906;28;20267;-67
2022/10/06 09:06:41;;;;;;;2.53;2.30;;;;;;;25.95;31.28;100685.25;4981810;28;20200;-67
2022/10/06 09:09:20;;;;;;;8.83;2.43;;;;;;;26.08;29.90;100682.03;4975301;28;20611;-66
2022/10/06 09:12:00;;;;;;;3.23;2.03;;;;;;;26.11;28.56;100685.03;4975737;28;20191;-65
2022/10/06 09:14:35;;;;;;;3.83;2.67;;;;;;;26.04;28.81;100683.66;4975405;28;20314;-65
2022/10/06 09:17:09;;;;;;;4.63;2.50;;;;;;;26.05;29.22;100674.41;4975239;28;20616;-66
2022/10/06 09:19:43;;;;;;;1.80;1.70;;;;;;;26.00;29.78;100672.47;4976375;28;20274;-67
2022/10/06 09:22:19;;;;;;;8.30;2.67;;;;;;;26.00;31.02;100671.69;4975635;28;20222;-67
2022/10/06 09:24:49;;;;;;;7.90;2.33;;;;;;;26.21;28.96;100671.44;4975632;28;20188;-67
2022/10/06 09:27:21;;;;;;;3.70;2.40;;;;;;;26.07;29.07;100666.78;4975672;28;20221;-67
2022/10/06 09:29:49;;;;;;;10.90;2.30;;;;;;;25.58;29.34;100660.88;4974565;28;20656;-68
2022/10/06 09:32:19;;;;;;;5.37;3.17;;;;;;;25.38;31.75;100657.22;4974515;28;20258;-68
2022/10/06 09:34:50;;;;;;;3.60;2.20;;;;;;;25.64;29.90;100656.28;4974463;28;20191;-65
2022/10/06 09:37:17;;;;;;;8.60;2.50;;;;;;;25.72;30.29;100663.91;4974706;28;20187;-67
2022/10/06 09:39:47;;;;;;;2.20;2.00;;;;;;;25.90;29.71;100649.81;4974128;28;20196;-67
2022/10/06 09:42:18;;;;;;;11.50;2.30;;;;;;;25.93;29.12;100655.53;4980033;28;20233;-68
2022/10/06 09:44:57;;;;;;;3.50;1.77;;;;;;;25.20;29.64;100650.31;4992889;28;20191;-66
2022/10/06 09:47:35;;;;;;;2.40;1.87;;;;;;;25.38;30.42;100657.22;4975490;28;20199;-65
2022/10/06 09:50:15;;;;;;;6.67;2.43;;;;;;;25.55;29.66;100649.69;4976033;28;20192;-65
2022/10/06 09:52:43;;;;;;;2.90;2.10;;;;;;;25.42;30.22;100644.72;4974669;28;20229;-66
2022/10/06 09:55:12;;;;;;;5.97;1.80;;;;;;;25.20;31.03;100635.88;4976532;28;20194;-65
2022/10/06 09:57:48;;;;;;;2.47;1.80;;;;;;;25.21;30.44;100640.22;4975227;28;20667;-66
2022/10/06 10:00:28;;;;;;;2.10;1.90;;;;;;;25.36;30.55;100637.63;4976152;28;20223;-66
2022/10/06 10:03:02;;;;;;;1.90;1.70;;;;;;;25.48;29.91;100632.78;4956058;28;20219;-65
2022/10/06 10:05:32;;;;;;;2.27;2.03;;;;;;;25.48;29.78;100638.22;4956091;29;20188;-66
2022/10/06 10:08:07;;;;;;;5.97;2.00;;;;;;;25.28;30.12;100627.25;4955689;29;20184;-66
2022/10/06 10:10:35;;;;;;;5.57;2.33;;;;;;;25.24;31.10;100615.22;4956096;28;20196;-66
2022/10/06 10:13:03;;;;;;;2.43;1.60;;;;;;;25.12;30.16;100623.59;4955605;29;20200;-66
2022/10/06 10:15:32;;;;;;;3.00;1.93;;;;;;;25.23;31.04;100613.59;4956738;28;20195;-66
2022/10/06 10:18:03;;;;;;;4.00;2.33;;;;;;;25.46;29.67;100600.41;4956108;28;20199;-64
2022/10/06 10:20:34;;;;;;;8.37;4.33;;;;;;;25.43;30.52;100600.91;4955574;29;20251;-67
2022/10/06 10:23:06;;;;;;;3.43;1.87;;;;;;;25.77;29.11;100615.75;4956005;29;20212;-66
2022/10/06 10:25:52;;;;;;;5.13;2.03;;;;;;;25.87;28.72;100602.16;4964793;28;20270;-66
2022/10/06 10:28:49;;;;;;;2.30;1.70;;;;;;;25.78;30.17;100594.78;4975225;28;20199;-65
2022/10/06 10:31:21;;;;;;;7.57;1.97;;;;;;;26.02;30.07;100590.50;4975045;28;20247;-66
2022/10/06 10:34:00;;;;;;;2.83;1.87;;;;;;;26.17;30.65;100583.16;4974860;28;20191;-67
2022/10/06 10:36:36;;;;;;;2.30;2.07;;;;;;;26.09;31.79;100582.91;4974553;28;20729;-66
2022/10/06 10:39:10;;;;;;;5.17;1.40;;;;;;;26.17;28.67;100579.63;4974868;28;20199;-66
2022/10/06 10:41:46;;;;;;;2.97;1.80;;;;;;;26.18;29.81;100570.38;4975157;28;20246;-66
2022/10/06 10:44:25;;;;;;;2.57;1.83;;;;;;;25.94;29.99;100578.25;4974484;28;20191;-66
2022/10/06 10:46:57;;;;;;;3.13;1.50;;;;;;;25.75;28.67;100570.81;4974560;28;20191;-66
2022/10/06 10:49:28;;;;;;;2.90;1.47;;;;;;;25.59;30.19;100561.78;4975152;28;20254;-65
2022/10/06 10:52:02;;;;;;;3.93;1.77;;;;;;;25.73;28.62;100564.81;4975316;28;20191;-66
2022/10/06 10:54:39;;;;;;;2.27;1.47;;;;;;;25.86;28.96;100564.31;4973580;28;20290;-66
2022/10/06 10:57:11;;;;;;;7.57;1.40;;;;;;;25.77;28.71;100557.75;4974225;28;20594;-65
2022/10/06 10:59:49;;;;;;;7.17;2.40;;;;;;;25.97;29.89;100555.09;4975077;28;20242;-64
2022/10/06 11:02:20;;;;;;;2.87;1.60;;;;;;;26.16;29.36;100557.00;4974162;28;20206;-64
2022/10/06 11:04:53;;;;;;;1.93;1.53;;;;;;;26.44;28.25;100551.03;4975210;28;20210;-64
2022/10/06 11:07:25;;;;;;;5.63;1.83;;;;;;;26.19;28.21;100529.25;4974267;28;20618;-67
2022/10/06 11:10:00;;;;;;;1.97;1.67;;;;;;;25.95;28.38;100543.66;4954718;28;20188;-66
2022/10/06 11:12:48;;;;;;;3.87;1.50;;;;;;;25.90;29.11;100524.56;4954576;28;20727;-66
2022/10/06 11:15:21;;;;;;;3.00;1.77;;;;;;;26.01;29.87;100516.16;4953989;29;20200;-65
2022/10/06 11:17:50;;;;;;;5.10;1.40;;;;;;;26.22;29.51;100527.88;4954721;28;20196;-64
2022/10/06 11:20:40;;;;;;;8.80;2.00;;;;;;;26.07;29.14;100523.25;4954671;28;20641;-65
2022/10/06 11:23:40;;;;;;;4.57;2.33;;;;;;;25.96;30.41;100515.34;4954275;28;20212;-64
2022/10/06 11:26:18;;;;;;;6.37;1.70;;;;;;;26.04;27.68;100521.06;4967263;28;20710;-63
2022/10/06 11:28:52;;;;;;;3.43;1.53;;;;;;;25.76;28.31;100512.56;4973674;28;20191;-65
2022/10/06 11:31:26;;;;;;;5.73;1.50;;;;;;;25.61;28.40;100520.69;4971794;28;20191;-64
2022/10/06 11:33:54;;;;;;;2.60;1.27;;;;;;;25.56;28.22;100512.53;4972935;28;20276;-66
2022/10/06 11:36:34;;;;;;;3.40;1.43;;;;;;;25.69;28.43;100512.00;4972183;28;20623;-64
2022/10/06 11:39:07;;;;;;;6.73;1.70;;;;;;;25.46;28.37;100501.59;4973307;28;20720;-64
2022/10/06 11:41:38;;;;;;;8.27;1.60;;;;;;;24.81;28.72;100499.44;4973548;28;20279;-64
2022/10/06 11:44:15;;;;;;;3.47;1.40;;;;;;;24.92;29.28;100495.69;4973286;28;20654;-64
2022/10/06 11:46:45;;;;;;;2.20;1.20;;;;;;;24.79;28.30;100491.53;4973551;28;20639;-64